Time,TemperatureF,DewpointF,PressureIn,WindDirection,WindDirectionDegrees,WindSpeedMPH,WindSpeedGustMPH,Humidity,HourlyPrecipIn,Conditions,Clouds,dailyrainin,SoftwareType,DateUTC
2013-12-15 00:01:00,40.7,39.1,29.87,NE,39,0.0,1.0,94,0.00,,,0.08,Wunderground v.1.15,2013-12-15 05:01:00,
2013-12-15 00:06:00,40.7,39.1,29.88,NE,39,0.0,2.0,94,0.00,,,0.00,Wunderground v.1.15,2013-12-15 05:06:00,
2013-12-15 00:11:00,40.7,39.1,29.90,NE,39,0.0,2.0,94,0.00,,,0.00,Wunderground v.1.15,2013-12-15 05:11:00,
2013-12-15 00:21:00,40.7,39.1,29.89,ENE,61,1.0,1.0,94,0.00,,,0.00,Wunderground v.1.15,2013-12-15 05:21:00,
2013-12-15 00:26:00,40.7,39.1,29.88,ENE,62,0.0,0.0,94,0.00,,,0.00,Wunderground v.1.15,2013-12-15 05:26:00,
2013-12-15 00:31:00,40.7,39.1,29.87,ENE,62,0.0,0.0,94,0.00,,,0.00,Wunderground v.1.15,2013-12-15 05:31:00,
2013-12-15 00:36:00,40.7,39.1,29.88,ENE,62,0.0,0.0,94,0.00,,,0.00,Wunderground v.1.15,2013-12-15 05:36:00,
2013-12-15 00:41:00,40.7,39.1,29.87,ENE,62,0.0,0.0,94,0.00,,,0.00,Wunderground v.1.15,2013-12-15 05:41:00,
2013-12-15 00:46:00,40.7,39.1,29.84,ENE,62,0.0,0.0,94,0.00,,,0.00,Wunderground v.1.15,2013-12-15 05:46:00,
2013-12-15 00:51:00,40.6,39.0,29.84,ESE,110,0.0,0.0,94,0.00,,,0.00,Wunderground v.1.15,2013-12-15 05:51:00,
2013-12-15 00:56:00,40.6,39.0,29.85,ESE,110,0.0,0.0,94,0.00,,,0.00,Wunderground v.1.15,2013-12-15 05:56:00,
2013-12-15 01:01:00,40.6,39.0,29.85,ESE,110,0.0,0.0,94,0.00,,,0.00,Wunderground v.1.15,2013-12-15 06:01:00,
2013-12-15 01:06:00,40.6,39.0,29.86,ESE,110,0.0,0.0,94,0.00,,,0.00,Wunderground v.1.15,2013-12-15 06:06:00,
2013-12-15 01:11:00,40.7,39.1,29.85,ESE,110,0.0,0.0,94,0.00,,,0.00,Wunderground v.1.15,2013-12-15 06:11:00,
2013-12-15 01:16:00,40.7,39.1,29.85,ESE,110,0.0,0.0,94,0.00,,,0.00,Wunderground v.1.15,2013-12-15 06:16:00,
2013-12-15 01:26:00,40.8,39.2,29.87,East,100,0.0,0.0,94,0.00,,,0.01,Wunderground v.1.15,2013-12-15 06:26:00,
2013-12-15 01:31:00,40.8,39.2,29.86,NW,324,0.0,2.0,94,0.00,,,0.01,Wunderground v.1.15,2013-12-15 06:31:00,
2013-12-15 01:36:00,40.9,39.3,29.85,NW,324,1.0,1.0,94,0.00,,,0.01,Wunderground v.1.15,2013-12-15 06:36:00,
2013-12-15 01:41:00,40.9,39.3,29.88,NE,36,1.0,1.0,94,0.00,,,0.01,Wunderground v.1.15,2013-12-15 06:41:00,
2013-12-15 01:46:00,41.0,39.4,29.89,NNW,341,1.0,1.0,94,0.00,,,0.01,Wunderground v.1.15,2013-12-15 06:46:00,
2013-12-15 01:56:00,41.1,39.5,29.87,NNE,17,1.0,1.0,94,0.00,,,0.02,Wunderground v.1.15,2013-12-15 06:56:00,
2013-12-15 02:01:00,41.1,39.5,29.86,NNE,14,0.0,1.0,94,0.00,,,0.02,Wunderground v.1.15,2013-12-15 07:01:00,
2013-12-15 02:06:00,41.1,39.5,29.85,WNW,295,0.0,0.0,94,0.00,,,0.02,Wunderground v.1.15,2013-12-15 07:06:00,
2013-12-15 02:11:00,41.1,39.5,29.84,NNW,343,1.0,1.0,94,0.00,,,0.02,Wunderground v.1.15,2013-12-15 07:11:00,
2013-12-15 02:21:00,41.1,39.5,29.85,NNW,343,0.0,0.0,94,0.00,,,0.02,Wunderground v.1.15,2013-12-15 07:21:00,
2013-12-15 02:31:00,41.3,39.7,29.87,ENE,60,1.0,2.0,94,0.00,,,0.02,Wunderground v.1.15,2013-12-15 07:31:00,
2013-12-15 02:36:00,41.4,39.8,29.87,ENE,69,1.0,1.0,94,0.00,,,0.02,Wunderground v.1.15,2013-12-15 07:36:00,
2013-12-15 02:41:00,41.4,39.8,29.86,ENE,71,1.0,1.0,94,0.00,,,0.02,Wunderground v.1.15,2013-12-15 07:41:00,
2013-12-15 02:46:00,41.4,39.8,29.86,ENE,71,0.0,0.0,94,0.00,,,0.02,Wunderground v.1.15,2013-12-15 07:46:00,
2013-12-15 02:56:00,41.4,39.8,29.83,North,7,0.0,1.0,94,0.00,,,0.02,Wunderground v.1.15,2013-12-15 07:56:00,
2013-12-15 03:01:00,41.4,39.8,29.82,NNW,341,0.0,1.0,94,0.00,,,0.02,Wunderground v.1.15,2013-12-15 08:01:00,
2013-12-15 03:06:00,41.4,39.8,29.86,NNE,31,0.0,0.0,94,0.00,,,0.02,Wunderground v.1.15,2013-12-15 08:06:00,
2013-12-15 03:11:00,41.5,39.9,29.83,North,2,1.0,1.0,94,0.00,,,0.02,Wunderground v.1.15,2013-12-15 08:11:00,
2013-12-15 03:16:00,41.4,39.8,29.86,NNW,342,0.0,0.0,94,0.00,,,0.02,Wunderground v.1.15,2013-12-15 08:16:00,
2013-12-15 03:21:00,41.4,39.8,29.84,NNW,342,0.0,0.0,94,0.00,,,0.02,Wunderground v.1.15,2013-12-15 08:21:00,
2013-12-15 03:31:00,41.4,39.8,29.84,NE,42,0.0,1.0,94,0.00,,,0.02,Wunderground v.1.15,2013-12-15 08:31:00,
2013-12-15 03:36:00,41.4,39.8,29.83,WNW,298,0.0,0.0,94,0.00,,,0.02,Wunderground v.1.15,2013-12-15 08:36:00,
2013-12-15 03:41:00,41.4,39.8,29.83,WNW,298,0.0,0.0,94,0.00,,,0.02,Wunderground v.1.15,2013-12-15 08:41:00,
2013-12-15 03:46:00,41.4,39.8,29.83,NW,314,0.0,1.0,94,0.00,,,0.02,Wunderground v.1.15,2013-12-15 08:46:00,
2013-12-15 03:51:00,41.4,39.8,29.84,NNW,342,0.0,1.0,94,0.00,,,0.02,Wunderground v.1.15,2013-12-15 08:51:00,
2013-12-15 04:01:00,41.5,39.9,29.83,NNE,14,0.0,1.0,94,0.00,,,0.02,Wunderground v.1.15,2013-12-15 09:01:00,
2013-12-15 04:06:00,41.5,39.9,29.82,North,10,0.0,0.0,94,0.00,,,0.02,Wunderground v.1.15,2013-12-15 09:06:00,
2013-12-15 04:11:00,41.5,39.9,29.81,North,10,0.0,0.0,94,0.00,,,0.02,Wunderground v.1.15,2013-12-15 09:11:00,
2013-12-15 04:16:00,41.6,40.0,29.81,North,10,0.0,0.0,94,0.00,,,0.02,Wunderground v.1.15,2013-12-15 09:16:00,
2013-12-15 04:21:00,41.6,40.0,29.82,North,10,0.0,0.0,94,0.00,,,0.02,Wunderground v.1.15,2013-12-15 09:21:00,
2013-12-15 04:26:00,41.7,40.1,29.83,NNE,12,0.0,0.0,94,0.00,,,0.02,Wunderground v.1.15,2013-12-15 09:26:00,
2013-12-15 04:36:00,41.9,40.3,29.82,NNE,28,1.0,2.0,94,0.00,,,0.02,Wunderground v.1.15,2013-12-15 09:36:00,
2013-12-15 04:46:00,42.1,40.5,29.83,ENE,67,1.0,4.0,94,0.00,,,0.02,Wunderground v.1.15,2013-12-15 09:46:00,
2013-12-15 04:51:00,42.2,40.6,29.83,ENE,62,1.0,4.0,94,0.00,,,0.02,Wunderground v.1.15,2013-12-15 09:51:00,
2013-12-15 04:56:00,42.2,40.6,29.82,NE,52,1.0,1.0,94,0.00,,,0.02,Wunderground v.1.15,2013-12-15 09:56:00,
2013-12-15 05:01:00,42.3,40.7,29.82,NE,52,1.0,1.0,94,0.00,,,0.02,Wunderground v.1.15,2013-12-15 10:01:00,
2013-12-15 05:11:00,42.2,40.6,29.82,ENE,57,1.0,1.0,94,0.00,,,0.02,Wunderground v.1.15,2013-12-15 10:11:00,
2013-12-15 05:21:00,42.2,40.6,29.85,NE,54,1.0,1.0,94,0.00,,,0.02,Wunderground v.1.15,2013-12-15 10:21:00,
2013-12-15 05:26:00,42.2,40.6,29.85,NE,54,1.0,1.0,94,0.00,,,0.02,Wunderground v.1.15,2013-12-15 10:26:00,
2013-12-15 05:31:00,42.2,40.6,29.85,NE,54,1.0,1.0,94,0.00,,,0.02,Wunderground v.1.15,2013-12-15 10:31:00,
2013-12-15 05:36:00,42.2,40.6,29.85,NE,54,0.0,0.0,94,0.00,,,0.02,Wunderground v.1.15,2013-12-15 10:36:00,
2013-12-15 05:41:00,42.2,40.6,29.86,NE,56,0.0,0.0,94,0.00,,,0.02,Wunderground v.1.15,2013-12-15 10:41:00,
2013-12-15 05:51:00,42.5,40.9,29.86,ENE,62,1.0,1.0,94,0.00,,,0.02,Wunderground v.1.15,2013-12-15 10:51:00,
2013-12-15 05:56:00,42.7,41.1,29.85,ENE,62,1.0,1.0,94,0.00,,,0.02,Wunderground v.1.15,2013-12-15 10:56:00,
2013-12-15 06:06:00,42.8,41.2,29.85,NE,54,0.0,0.0,94,0.00,,,0.02,Wunderground v.1.15,2013-12-15 11:06:00,
2013-12-15 06:11:00,42.9,41.3,29.86,NE,54,0.0,0.0,94,0.00,,,0.02,Wunderground v.1.15,2013-12-15 11:11:00,
2013-12-15 06:16:00,43.0,41.4,29.86,NE,54,0.0,0.0,94,0.00,,,0.02,Wunderground v.1.15,2013-12-15 11:16:00,
2013-12-15 06:21:00,43.0,41.4,29.86,NE,43,1.0,1.0,94,0.00,,,0.02,Wunderground v.1.15,2013-12-15 11:21:00,
2013-12-15 06:26:00,43.1,41.5,29.86,NE,43,1.0,1.0,94,0.00,,,0.02,Wunderground v.1.15,2013-12-15 11:26:00,
2013-12-15 06:36:00,43.2,41.6,29.86,NE,42,0.0,0.0,94,0.00,,,0.02,Wunderground v.1.15,2013-12-15 11:36:00,
2013-12-15 06:41:00,43.2,41.6,29.87,NNE,23,0.0,0.0,94,0.00,,,0.02,Wunderground v.1.15,2013-12-15 11:41:00,
2013-12-15 06:46:00,43.3,41.7,29.87,ENE,58,1.0,1.0,94,0.00,,,0.02,Wunderground v.1.15,2013-12-15 11:46:00,
2013-12-15 06:51:00,43.4,41.8,29.88,NE,45,0.0,1.0,94,0.00,,,0.02,Wunderground v.1.15,2013-12-15 11:51:00,
2013-12-15 07:01:00,43.5,41.9,29.88,NE,45,0.0,1.0,94,0.00,,,0.02,Wunderground v.1.15,2013-12-15 12:01:00,
2013-12-15 07:06:00,43.6,42.0,29.88,NE,45,1.0,1.0,94,0.00,,,0.03,Wunderground v.1.15,2013-12-15 12:06:00,
2013-12-15 07:11:00,43.7,42.1,29.89,NE,45,1.0,1.0,94,0.00,,,0.03,Wunderground v.1.15,2013-12-15 12:11:00,
2013-12-15 07:16:00,43.8,42.2,29.89,NE,48,0.0,1.0,94,0.00,,,0.03,Wunderground v.1.15,2013-12-15 12:16:00,
2013-12-15 07:21:00,43.9,42.3,29.89,ENE,75,1.0,2.0,94,0.00,,,0.03,Wunderground v.1.15,2013-12-15 12:21:00,
2013-12-15 07:31:00,44.0,42.4,29.89,NE,50,1.0,1.0,94,0.00,,,0.03,Wunderground v.1.15,2013-12-15 12:31:00,
2013-12-15 07:36:00,44.0,42.4,29.90,NE,43,1.0,1.0,94,0.00,,,0.03,Wunderground v.1.15,2013-12-15 12:36:00,
2013-12-15 07:41:00,44.0,42.4,29.90,NE,48,1.0,2.0,94,0.00,,,0.03,Wunderground v.1.15,2013-12-15 12:41:00,
2013-12-15 07:46:00,44.0,42.4,29.90,NE,43,1.0,1.0,94,0.00,,,0.03,Wunderground v.1.15,2013-12-15 12:46:00,
2013-12-15 07:51:00,44.0,42.4,29.90,NE,43,1.0,2.0,94,0.00,,,0.03,Wunderground v.1.15,2013-12-15 12:51:00,
2013-12-15 07:56:00,43.9,42.3,29.91,NE,43,0.0,1.0,94,0.00,,,0.03,Wunderground v.1.15,2013-12-15 12:56:00,
2013-12-15 08:06:00,43.8,42.2,29.91,ENE,57,1.0,1.0,94,0.00,,,0.03,Wunderground v.1.15,2013-12-15 13:06:00,
2013-12-15 08:11:00,43.8,42.2,29.91,ENE,57,0.0,1.0,94,0.00,,,0.03,Wunderground v.1.15,2013-12-15 13:11:00,
2013-12-15 08:16:00,43.8,42.2,29.92,ENE,57,0.0,1.0,94,0.00,,,0.03,Wunderground v.1.15,2013-12-15 13:16:00,
2013-12-15 08:21:00,43.8,42.2,29.92,ENE,57,0.0,1.0,94,0.00,,,0.03,Wunderground v.1.15,2013-12-15 13:21:00,
2013-12-15 08:26:00,43.8,42.2,29.92,ENE,57,0.0,1.0,94,0.00,,,0.03,Wunderground v.1.15,2013-12-15 13:26:00,
2013-12-15 08:31:00,43.8,42.2,29.93,NE,47,0.0,1.0,94,0.00,,,0.03,Wunderground v.1.15,2013-12-15 13:31:00,
2013-12-15 08:41:00,44.0,42.4,29.93,NE,48,1.0,1.0,94,0.00,,,0.03,Wunderground v.1.15,2013-12-15 13:41:00,
2013-12-15 08:46:00,44.1,42.5,29.94,NE,48,1.0,1.0,94,0.00,,,0.03,Wunderground v.1.15,2013-12-15 13:46:00,
2013-12-15 08:51:00,44.3,42.7,29.94,ENE,60,1.0,1.0,94,0.00,,,0.03,Wunderground v.1.15,2013-12-15 13:51:00,
2013-12-15 08:56:00,44.4,42.8,29.94,ENE,64,1.0,1.0,94,0.00,,,0.03,Wunderground v.1.15,2013-12-15 13:56:00,
2013-12-15 09:01:00,44.5,42.9,29.95,NE,46,1.0,1.0,94,0.00,,,0.03,Wunderground v.1.15,2013-12-15 14:01:00,
2013-12-15 09:11:00,44.9,43.3,29.96,NE,46,1.0,1.0,94,0.00,,,0.03,Wunderground v.1.15,2013-12-15 14:11:00,
2013-12-15 09:16:00,45.1,43.5,29.96,NE,46,0.0,0.0,94,0.00,,,0.03,Wunderground v.1.15,2013-12-15 14:16:00,
2013-12-15 09:21:00,45.2,43.6,29.96,ENE,58,1.0,4.0,94,0.00,,,0.03,Wunderground v.1.15,2013-12-15 14:21:00,
2013-12-15 09:26:00,45.3,43.7,29.96,ENE,61,1.0,1.0,94,0.00,,,0.03,Wunderground v.1.15,2013-12-15 14:26:00,
2013-12-15 09:31:00,45.4,43.8,29.97,ENE,57,1.0,1.0,94,0.00,,,0.03,Wunderground v.1.15,2013-12-15 14:31:00,
2013-12-15 09:41:00,45.5,43.9,29.97,ENE,64,1.0,2.0,94,0.00,,,0.03,Wunderground v.1.15,2013-12-15 14:41:00,
2013-12-15 09:46:00,45.8,44.2,29.97,NE,46,1.0,1.0,94,0.00,,,0.03,Wunderground v.1.15,2013-12-15 14:46:00,
2013-12-15 09:51:00,46.0,44.4,29.98,NE,46,1.0,1.0,94,0.00,,,0.03,Wunderground v.1.15,2013-12-15 14:51:00,
2013-12-15 09:56:00,46.1,44.2,29.98,NE,54,1.0,1.0,93,0.00,,,0.03,Wunderground v.1.15,2013-12-15 14:56:00,
2013-12-15 10:01:00,46.2,44.3,29.98,ENE,57,1.0,1.0,93,0.00,,,0.03,Wunderground v.1.15,2013-12-15 15:01:00,
2013-12-15 10:11:00,46.9,44.7,29.98,ENE,61,1.0,1.0,92,0.00,,,0.03,Wunderground v.1.15,2013-12-15 15:11:00,
2013-12-15 10:16:00,47.9,46.0,29.98,NE,49,1.0,1.0,93,0.00,,,0.03,Wunderground v.1.15,2013-12-15 15:16:00,
2013-12-15 10:21:00,48.7,45.9,29.99,NE,51,1.0,1.0,90,0.00,,,0.03,Wunderground v.1.15,2013-12-15 15:21:00,
2013-12-15 10:26:00,49.2,45.8,29.99,ENE,59,1.0,1.0,88,0.00,,,0.03,Wunderground v.1.15,2013-12-15 15:26:00,
2013-12-15 10:31:00,49.5,45.2,29.99,NE,41,1.0,2.0,85,0.00,,,0.03,Wunderground v.1.15,2013-12-15 15:31:00,
2013-12-15 10:36:00,49.8,44.8,29.99,ENE,74,2.0,3.0,83,0.00,,,0.03,Wunderground v.1.15,2013-12-15 15:36:00,
2013-12-15 10:46:00,50.0,44.1,30.00,NNE,31,3.0,4.0,80,0.00,,,0.03,Wunderground v.1.15,2013-12-15 15:46:00,
2013-12-15 10:51:00,50.4,44.5,29.99,East,83,2.0,4.0,80,0.00,,,0.03,Wunderground v.1.15,2013-12-15 15:51:00,
2013-12-15 10:56:00,50.6,44.3,29.99,ENE,74,2.0,2.0,79,0.00,,,0.03,Wunderground v.1.15,2013-12-15 15:56:00,
2013-12-15 11:01:00,51.1,44.1,29.99,ENE,70,2.0,3.0,77,0.00,,,0.03,Wunderground v.1.15,2013-12-15 16:01:00,
2013-12-15 11:06:00,51.4,45.1,29.98,ENE,72,1.0,1.0,79,0.00,,,0.03,Wunderground v.1.15,2013-12-15 16:06:00,
2013-12-15 11:16:00,52.2,45.2,29.99,NE,39,1.0,1.0,77,0.00,,,0.03,Wunderground v.1.15,2013-12-15 16:16:00,
2013-12-15 11:21:00,52.3,44.6,29.98,ENE,70,1.0,3.0,75,0.00,,,0.03,Wunderground v.1.15,2013-12-15 16:21:00,
2013-12-15 11:26:00,52.3,43.2,29.99,ENE,60,2.0,4.0,71,0.00,,,0.03,Wunderground v.1.15,2013-12-15 16:26:00,
2013-12-15 11:31:00,52.3,43.5,29.99,ESE,117,2.0,4.0,72,0.00,,,0.03,Wunderground v.1.15,2013-12-15 16:31:00,
2013-12-15 11:41:00,52.8,43.7,29.98,NE,50,2.0,2.0,71,0.00,,,0.03,Wunderground v.1.15,2013-12-15 16:41:00,
2013-12-15 11:51:00,53.5,43.6,29.98,ENE,77,1.0,1.0,69,0.00,,,0.03,Wunderground v.1.15,2013-12-15 16:51:00,
2013-12-15 11:56:00,53.5,42.4,29.98,ENE,61,2.0,4.0,66,0.00,,,0.03,Wunderground v.1.15,2013-12-15 16:56:00,
2013-12-15 12:01:00,53.5,43.6,29.98,East,87,3.0,4.0,69,0.00,,,0.03,Wunderground v.1.15,2013-12-15 17:01:00,
2013-12-15 12:06:00,53.8,43.9,29.97,ENE,59,2.0,2.0,69,0.00,,,0.03,Wunderground v.1.15,2013-12-15 17:06:00,
2013-12-15 12:16:00,53.6,44.0,29.97,NE,50,3.0,3.0,70,0.00,,,0.03,Wunderground v.1.15,2013-12-15 17:16:00,
2013-12-15 12:21:00,54.0,43.7,29.97,ENE,70,2.0,3.0,68,0.00,,,0.03,Wunderground v.1.15,2013-12-15 17:21:00,
2013-12-15 12:26:00,54.3,43.6,29.97,NNE,18,2.0,2.0,67,0.00,,,0.03,Wunderground v.1.15,2013-12-15 17:26:00,
2013-12-15 12:31:00,54.9,43.4,29.97,NNE,33,1.0,2.0,65,0.00,,,0.03,Wunderground v.1.15,2013-12-15 17:31:00,
2013-12-15 12:36:00,55.2,43.2,29.97,NE,50,2.0,5.0,64,0.00,,,0.03,Wunderground v.1.15,2013-12-15 17:36:00,
2013-12-15 12:46:00,55.0,42.2,29.98,NE,37,3.0,5.0,62,0.00,,,0.03,Wunderground v.1.15,2013-12-15 17:46:00,
2013-12-15 12:51:00,55.1,41.5,29.97,ENE,76,2.0,5.0,60,0.00,,,0.03,Wunderground v.1.15,2013-12-15 17:51:00,
2013-12-15 12:56:00,54.9,41.3,29.97,NE,53,3.0,4.0,60,0.00,,,0.03,Wunderground v.1.15,2013-12-15 17:56:00,
2013-12-15 13:01:00,54.8,41.2,29.97,East,89,4.0,4.0,60,0.00,,,0.03,Wunderground v.1.15,2013-12-15 18:01:00,
2013-12-15 13:06:00,54.9,40.8,29.97,ESE,108,4.0,9.0,59,0.00,,,0.03,Wunderground v.1.15,2013-12-15 18:06:00,
2013-12-15 13:11:00,54.7,40.6,29.97,NE,56,4.0,9.0,59,0.00,,,0.03,Wunderground v.1.15,2013-12-15 18:11:00,
2013-12-15 13:21:00,55.3,40.8,29.97,NE,37,2.0,5.0,58,0.00,,,0.03,Wunderground v.1.15,2013-12-15 18:21:00,
2013-12-15 13:26:00,55.3,39.9,29.96,ENE,62,3.0,4.0,56,0.00,,,0.03,Wunderground v.1.15,2013-12-15 18:26:00,
2013-12-15 13:31:00,55.1,39.2,29.96,NE,41,4.0,5.0,55,0.00,,,0.03,Wunderground v.1.15,2013-12-15 18:31:00,
2013-12-15 13:36:00,55.0,38.2,29.96,NE,53,4.0,4.0,53,0.00,,,0.03,Wunderground v.1.15,2013-12-15 18:36:00,
2013-12-15 13:41:00,55.1,38.3,29.96,ENE,68,3.0,6.0,53,0.00,,,0.03,Wunderground v.1.15,2013-12-15 18:41:00,
2013-12-15 13:51:00,55.5,39.6,29.97,ENE,67,3.0,6.0,55,0.00,,,0.03,Wunderground v.1.15,2013-12-15 18:51:00,
2013-12-15 13:56:00,55.7,39.3,29.97,NE,35,2.0,2.0,54,0.00,,,0.03,Wunderground v.1.15,2013-12-15 18:56:00,
2013-12-15 14:01:00,55.8,37.9,29.97,ENE,70,3.0,4.0,51,0.00,,,0.03,Wunderground v.1.15,2013-12-15 19:01:00,
2013-12-15 14:06:00,55.7,37.8,29.97,East,79,3.0,3.0,51,0.00,,,0.03,Wunderground v.1.15,2013-12-15 19:06:00,
2013-12-15 14:11:00,55.5,37.7,29.97,NE,54,3.0,5.0,51,0.00,,,0.03,Wunderground v.1.15,2013-12-15 19:11:00,
2013-12-15 14:16:00,55.4,38.1,29.97,ESE,106,4.0,4.0,52,0.00,,,0.03,Wunderground v.1.15,2013-12-15 19:16:00,
2013-12-15 14:26:00,55.5,37.7,29.98,NE,43,3.0,3.0,51,0.00,,,0.03,Wunderground v.1.15,2013-12-15 19:26:00,
2013-12-15 14:31:00,55.6,37.7,29.98,NE,52,3.0,6.0,51,0.00,,,0.03,Wunderground v.1.15,2013-12-15 19:31:00,
2013-12-15 14:36:00,55.8,36.9,29.98,ENE,60,3.0,3.0,49,0.00,,,0.03,Wunderground v.1.15,2013-12-15 19:36:00,
2013-12-15 14:41:00,55.8,36.9,29.98,ENE,62,3.0,3.0,49,0.00,,,0.03,Wunderground v.1.15,2013-12-15 19:41:00,
2013-12-15 14:46:00,55.8,36.9,29.98,ENE,63,2.0,3.0,49,0.00,,,0.03,Wunderground v.1.15,2013-12-15 19:46:00,
2013-12-15 14:56:00,55.4,36.0,29.98,NE,50,4.0,4.0,48,0.00,,,0.03,Wunderground v.1.15,2013-12-15 19:56:00,
2013-12-15 15:01:00,55.1,36.8,29.98,NE,50,3.0,4.0,50,0.00,,,0.03,Wunderground v.1.15,2013-12-15 20:01:00,
2013-12-15 15:06:00,54.8,35.5,29.98,East,79,3.0,4.0,48,0.00,,,0.03,Wunderground v.1.15,2013-12-15 20:06:00,
2013-12-15 15:11:00,54.2,34.9,29.99,NE,55,4.0,4.0,48,0.00,,,0.03,Wunderground v.1.15,2013-12-15 20:11:00,
2013-12-15 15:16:00,54.0,34.2,29.99,ENE,75,3.0,5.0,47,0.00,,,0.03,Wunderground v.1.15,2013-12-15 20:16:00,
2013-12-15 15:21:00,54.0,34.2,29.99,ESE,102,3.0,5.0,47,0.00,,,0.03,Wunderground v.1.15,2013-12-15 20:21:00,
2013-12-15 15:31:00,53.7,35.0,29.99,NNE,24,4.0,7.0,49,0.00,,,0.03,Wunderground v.1.15,2013-12-15 20:31:00,
2013-12-15 15:36:00,53.5,35.3,30.00,NE,52,5.0,5.0,50,0.00,,,0.03,Wunderground v.1.15,2013-12-15 20:36:00,
2013-12-15 15:41:00,53.4,35.7,30.00,NE,53,4.0,7.0,51,0.00,,,0.03,Wunderground v.1.15,2013-12-15 20:41:00,
2013-12-15 15:46:00,53.4,35.7,30.01,ESE,118,4.0,4.0,51,0.00,,,0.03,Wunderground v.1.15,2013-12-15 20:46:00,
2013-12-15 15:51:00,53.3,35.6,30.01,NNE,28,4.0,4.0,51,0.00,,,0.03,Wunderground v.1.15,2013-12-15 20:51:00,
2013-12-15 15:56:00,53.2,35.5,30.01,NE,50,3.0,4.0,51,0.00,,,0.03,Wunderground v.1.15,2013-12-15 20:56:00,
2013-12-15 16:06:00,53.1,35.4,30.02,ENE,66,3.0,3.0,51,0.00,,,0.03,Wunderground v.1.15,2013-12-15 21:06:00,
2013-12-15 16:11:00,52.9,34.2,30.02,NE,51,2.0,5.0,49,0.00,,,0.03,Wunderground v.1.15,2013-12-15 21:11:00,
2013-12-15 16:16:00,52.7,33.0,30.02,ENE,71,4.0,5.0,47,0.00,,,0.03,Wunderground v.1.15,2013-12-15 21:16:00,
2013-12-15 16:21:00,52.5,32.3,30.02,South,191,5.0,5.0,46,0.00,,,0.03,Wunderground v.1.15,2013-12-15 21:21:00,
2013-12-15 16:26:00,52.3,32.1,30.03,ENE,78,3.0,3.0,46,0.00,,,0.03,Wunderground v.1.15,2013-12-15 21:26:00,
2013-12-15 16:36:00,51.8,31.1,30.03,ENE,67,2.0,4.0,45,0.00,,,0.03,Wunderground v.1.15,2013-12-15 21:36:00,
2013-12-15 16:41:00,51.5,31.4,30.03,SW,224,3.0,4.0,46,0.00,,,0.03,Wunderground v.1.15,2013-12-15 21:41:00,
2013-12-15 16:46:00,51.3,31.7,30.04,ENE,77,3.0,3.0,47,0.00,,,0.03,Wunderground v.1.15,2013-12-15 21:46:00,
2013-12-15 16:51:00,51.0,31.5,30.04,ENE,59,2.0,3.0,47,0.00,,,0.03,Wunderground v.1.15,2013-12-15 21:51:00,
2013-12-15 16:56:00,50.8,32.3,30.04,ENE,75,1.0,1.0,49,0.00,,,0.03,Wunderground v.1.15,2013-12-15 21:56:00,
2013-12-15 17:01:00,50.4,32.4,30.04,ENE,75,0.0,1.0,50,0.00,,,0.03,Wunderground v.1.15,2013-12-15 22:01:00,
2013-12-15 17:11:00,49.6,32.2,30.04,NE,52,0.0,1.0,51,0.00,,,0.03,Wunderground v.1.15,2013-12-15 22:11:00,
2013-12-15 17:16:00,49.2,32.3,30.04,East,81,0.0,3.0,52,0.00,,,0.03,Wunderground v.1.15,2013-12-15 22:16:00,
2013-12-15 17:26:00,48.7,31.8,30.05,NE,43,2.0,2.0,52,0.00,,,0.03,Wunderground v.1.15,2013-12-15 22:26:00,
2013-12-15 17:31:00,48.5,31.7,30.05,ENE,77,1.0,2.0,52,0.00,,,0.03,Wunderground v.1.15,2013-12-15 22:31:00,
2013-12-15 17:36:00,48.2,31.4,30.05,ENE,58,1.0,1.0,52,0.00,,,0.03,Wunderground v.1.15,2013-12-15 22:36:00,
2013-12-15 17:41:00,48.0,31.2,30.05,NE,51,1.0,1.0,52,0.00,,,0.03,Wunderground v.1.15,2013-12-15 22:41:00,
2013-12-15 17:46:00,47.8,31.0,30.06,NE,52,1.0,1.0,52,0.00,,,0.03,Wunderground v.1.15,2013-12-15 22:46:00,
2013-12-15 17:56:00,47.3,31.0,30.06,ENE,58,1.0,3.0,53,0.00,,,0.03,Wunderground v.1.15,2013-12-15 22:56:00,
2013-12-15 18:01:00,47.1,31.3,30.07,ENE,60,0.0,3.0,54,0.00,,,0.03,Wunderground v.1.15,2013-12-15 23:01:00,
2013-12-15 18:06:00,46.9,31.6,30.07,ENE,60,0.0,0.0,55,0.00,,,0.03,Wunderground v.1.15,2013-12-15 23:06:00,
2013-12-15 18:11:00,46.5,31.2,30.07,ENE,60,0.0,0.0,55,0.00,,,0.03,Wunderground v.1.15,2013-12-15 23:11:00,
2013-12-15 18:16:00,46.2,30.9,30.08,ENE,60,0.0,0.0,55,0.00,,,0.03,Wunderground v.1.15,2013-12-15 23:16:00,
2013-12-15 18:26:00,45.3,31.8,30.08,ENE,60,0.0,0.0,59,0.00,,,0.03,Wunderground v.1.15,2013-12-15 23:26:00,
2013-12-15 18:31:00,44.8,31.3,30.09,ENE,60,0.0,0.0,59,0.00,,,0.03,Wunderground v.1.15,2013-12-15 23:31:00,
2013-12-15 18:36:00,44.4,31.4,30.09,ENE,60,0.0,0.0,60,0.00,,,0.03,Wunderground v.1.15,2013-12-15 23:36:00,
2013-12-15 18:41:00,44.1,31.9,30.10,ENE,60,0.0,0.0,62,0.00,,,0.03,Wunderground v.1.15,2013-12-15 23:41:00,
2013-12-15 18:46:00,43.7,31.9,30.10,ENE,60,0.0,0.0,63,0.00,,,0.03,Wunderground v.1.15,2013-12-15 23:46:00,
2013-12-15 18:51:00,43.3,31.9,30.10,ENE,60,0.0,1.0,64,0.00,,,0.03,Wunderground v.1.15,2013-12-15 23:51:00,
2013-12-15 19:01:00,43.3,32.3,30.11,ENE,58,0.0,1.0,65,0.00,,,0.03,Wunderground v.1.15,2013-12-16 00:01:00,
2013-12-15 19:06:00,43.3,32.3,30.11,ENE,58,0.0,1.0,65,0.00,,,0.03,Wunderground v.1.15,2013-12-16 00:06:00,
2013-12-15 19:11:00,43.3,32.3,30.11,ENE,62,0.0,1.0,65,0.00,,,0.03,Wunderground v.1.15,2013-12-16 00:11:00,
2013-12-15 19:16:00,43.3,32.7,30.11,ENE,62,0.0,0.0,66,0.00,,,0.03,Wunderground v.1.15,2013-12-16 00:16:00,
2013-12-15 19:21:00,43.2,32.6,30.11,ENE,62,0.0,0.0,66,0.00,,,0.03,Wunderground v.1.15,2013-12-16 00:21:00,
2013-12-15 19:31:00,43.0,32.8,30.11,ENE,58,0.0,0.0,67,0.00,,,0.03,Wunderground v.1.15,2013-12-16 00:31:00,
2013-12-15 19:36:00,42.9,32.7,30.11,ENE,58,0.0,0.0,67,0.00,,,0.03,Wunderground v.1.15,2013-12-16 00:36:00,
2013-12-15 19:41:00,42.7,32.9,30.12,ENE,58,0.0,0.0,68,0.00,,,0.03,Wunderground v.1.15,2013-12-16 00:41:00,
2013-12-15 19:51:00,42.1,32.3,30.12,ENE,58,0.0,0.0,68,0.00,,,0.03,Wunderground v.1.15,2013-12-16 00:51:00,
2013-12-15 19:56:00,41.9,32.1,30.12,ENE,58,0.0,0.0,68,0.00,,,0.03,Wunderground v.1.15,2013-12-16 00:56:00,
2013-12-15 20:01:00,41.7,32.3,30.13,ENE,57,0.0,0.0,69,0.00,,,0.03,Wunderground v.1.15,2013-12-16 01:01:00,
2013-12-15 20:06:00,41.6,32.2,30.13,ENE,57,0.0,0.0,69,0.00,,,0.03,Wunderground v.1.15,2013-12-16 01:06:00,
2013-12-15 20:11:00,41.4,32.0,30.13,ENE,57,0.0,0.0,69,0.00,,,0.03,Wunderground v.1.15,2013-12-16 01:11:00,
2013-12-15 20:16:00,41.1,32.4,30.13,ENE,57,0.0,0.0,71,0.00,,,0.03,Wunderground v.1.15,2013-12-16 01:16:00,
2013-12-15 20:21:00,40.8,32.5,30.13,ENE,57,0.0,0.0,72,0.00,,,0.03,Wunderground v.1.15,2013-12-16 01:21:00,
2013-12-15 20:31:00,40.0,32.0,30.13,ENE,57,0.0,0.0,73,0.00,,,0.03,Wunderground v.1.15,2013-12-16 01:31:00,
2013-12-15 20:36:00,39.7,32.1,30.14,ENE,57,0.0,0.0,74,0.00,,,0.03,Wunderground v.1.15,2013-12-16 01:36:00,
2013-12-15 20:41:00,39.4,32.1,30.14,ENE,57,0.0,0.0,75,0.00,,,0.03,Wunderground v.1.15,2013-12-16 01:41:00,
2013-12-15 20:46:00,39.2,32.3,30.14,ENE,57,0.0,0.0,76,0.00,,,0.03,Wunderground v.1.15,2013-12-16 01:46:00,
2013-12-15 20:51:00,38.9,32.0,30.14,ENE,57,0.0,0.0,76,0.00,,,0.03,Wunderground v.1.15,2013-12-16 01:51:00,
2013-12-15 20:56:00,38.7,31.8,30.14,ENE,57,0.0,0.0,76,0.00,,,0.03,Wunderground v.1.15,2013-12-16 01:56:00,
2013-12-15 21:06:00,38.4,31.8,30.15,ENE,57,0.0,0.0,77,0.00,,,0.03,Wunderground v.1.15,2013-12-16 02:06:00,
2013-12-15 21:11:00,38.2,31.9,30.15,ENE,57,0.0,0.0,78,0.00,,,0.03,Wunderground v.1.15,2013-12-16 02:11:00,
2013-12-15 21:16:00,38.0,31.7,30.15,ENE,57,0.0,0.0,78,0.00,,,0.03,Wunderground v.1.15,2013-12-16 02:16:00,
2013-12-15 21:21:00,37.7,31.5,30.15,ENE,57,0.0,0.0,78,0.00,,,0.03,Wunderground v.1.15,2013-12-16 02:21:00,
2013-12-15 21:26:00,37.6,31.4,30.15,ENE,57,0.0,0.0,78,0.00,,,0.03,Wunderground v.1.15,2013-12-16 02:26:00,
2013-12-15 21:36:00,38.0,31.1,30.15,ENE,57,0.0,0.0,76,0.00,,,0.03,Wunderground v.1.15,2013-12-16 02:36:00,
2013-12-15 21:41:00,38.0,31.1,30.15,ENE,57,0.0,0.0,76,0.00,,,0.03,Wunderground v.1.15,2013-12-16 02:41:00,
2013-12-15 21:46:00,37.9,31.0,30.15,ENE,57,0.0,0.0,76,0.00,,,0.03,Wunderground v.1.15,2013-12-16 02:46:00,
2013-12-15 21:51:00,37.8,30.9,30.15,ENE,57,0.0,0.0,76,0.00,,,0.03,Wunderground v.1.15,2013-12-16 02:51:00,
2013-12-15 21:56:00,37.5,30.9,30.16,ENE,57,0.0,0.0,77,0.00,,,0.03,Wunderground v.1.15,2013-12-16 02:56:00,
2013-12-15 22:06:00,36.9,30.7,30.16,ENE,57,0.0,0.0,78,0.00,,,0.03,Wunderground v.1.15,2013-12-16 03:06:00,
2013-12-15 22:11:00,36.6,30.4,30.17,ENE,57,0.0,0.0,78,0.00,,,0.03,Wunderground v.1.15,2013-12-16 03:11:00,
2013-12-15 22:16:00,36.3,30.4,30.17,ENE,57,0.0,0.0,79,0.00,,,0.03,Wunderground v.1.15,2013-12-16 03:16:00,
2013-12-15 22:21:00,36.0,30.1,30.17,ENE,57,0.0,0.0,79,0.00,,,0.03,Wunderground v.1.15,2013-12-16 03:21:00,
2013-12-15 22:26:00,35.8,30.2,30.17,ENE,57,0.0,0.0,80,0.00,,,0.03,Wunderground v.1.15,2013-12-16 03:26:00,
2013-12-15 22:31:00,35.7,30.4,30.17,ENE,57,0.0,0.0,81,0.00,,,0.03,Wunderground v.1.15,2013-12-16 03:31:00,
2013-12-15 22:41:00,35.3,30.1,30.17,ENE,57,0.0,0.0,81,0.00,,,0.03,Wunderground v.1.15,2013-12-16 03:41:00,
2013-12-15 22:46:00,35.1,30.2,30.17,ENE,57,0.0,0.0,82,0.00,,,0.03,Wunderground v.1.15,2013-12-16 03:46:00,
2013-12-15 22:51:00,34.9,30.0,30.17,ENE,57,0.0,0.0,82,0.00,,,0.03,Wunderground v.1.15,2013-12-16 03:51:00,
2013-12-15 22:56:00,34.8,29.6,30.18,ENE,57,0.0,0.0,81,0.00,,,0.03,Wunderground v.1.15,2013-12-16 03:56:00,
2013-12-15 23:01:00,34.7,29.5,30.18,ENE,57,0.0,0.0,81,0.00,,,0.03,Wunderground v.1.15,2013-12-16 04:01:00,
2013-12-15 23:06:00,34.6,29.7,30.17,ENE,57,0.0,0.0,82,0.00,,,0.03,Wunderground v.1.15,2013-12-16 04:06:00,
2013-12-15 23:11:00,34.6,29.7,30.17,ENE,57,0.0,0.0,82,0.00,,,0.03,Wunderground v.1.15,2013-12-16 04:11:00,
2013-12-15 23:16:00,34.5,29.6,30.17,ENE,57,0.0,0.0,82,0.00,,,0.03,Wunderground v.1.15,2013-12-16 04:16:00,
2013-12-15 23:21:00,34.3,29.7,30.18,ENE,57,0.0,0.0,83,0.00,,,0.03,Wunderground v.1.15,2013-12-16 04:21:00,
2013-12-15 23:26:00,34.1,29.8,30.17,ENE,57,0.0,0.0,84,0.00,,,0.03,Wunderground v.1.15,2013-12-16 04:26:00,
2013-12-15 23:31:00,33.8,29.5,30.17,ENE,57,0.0,0.0,84,0.00,,,0.03,Wunderground v.1.15,2013-12-16 04:31:00,
2013-12-15 23:41:00,33.2,28.9,30.17,ENE,57,0.0,0.0,84,0.00,,,0.03,Wunderground v.1.15,2013-12-16 04:41:00,
2013-12-15 23:46:00,32.9,28.9,30.17,ENE,57,0.0,0.0,85,0.00,,,0.03,Wunderground v.1.15,2013-12-16 04:46:00,
2013-12-15 23:51:00,32.7,29.0,30.17,ENE,57,0.0,0.0,86,0.00,,,0.03,Wunderground v.1.15,2013-12-16 04:51:00,
2013-12-15 23:56:00,32.4,28.7,30.17,ENE,57,0.0,0.0,86,0.00,,,0.03,Wunderground v.1.15,2013-12-16 04:56:00,